Time;durP1;ratioP1;P1;durP2;ratioP2;P2;SDS_P1;SDS_P2;PMS_P1;PMS_P2;Temp;Humidity;BMP_temperature;BMP_pressure;BME280_temperature;BME280_humidity;BME280_pressure;Samples;Min_cycle;Max_cycle;Signal;HPM_P1;HPM_P2
2021/10/31 00:01:38;;;;;;;;;;;;;;;4.83;87.46;101681.70;1695117;84;21036;-58
2021/10/31 00:04:04;;;;;;;57.03;36.70;;;;;;;4.86;87.16;101687.60;1717567;82;20093;-59
2021/10/31 00:06:30;;;;;;;52.80;35.68;;;;;;;4.82;87.04;101682.20;1702222;84;21041;-58
2021/10/31 00:08:56;;;;;;;58.95;39.27;;;;;;;4.81;87.12;101677.02;1699571;84;21008;-58
2021/10/31 00:11:22;;;;;;;57.95;34.90;;;;;;;4.80;87.16;101674.87;1687403;84;22421;-57
2021/10/31 00:13:48;;;;;;;76.60;38.15;;;;;;;4.71;87.01;101675.57;1679734;84;20994;-57
2021/10/31 00:16:14;;;;;;;;;;;;;;;4.60;87.36;101673.73;1687440;84;21057;-58
2021/10/31 00:18:41;;;;;;;56.17;36.50;;;;;;;4.56;87.47;101671.43;1683147;85;20394;-56
2021/10/31 00:21:08;;;;;;;;;;;;;;;4.57;87.71;101674.45;1684378;84;21077;-57
2021/10/31 00:23:36;;;;;;;53.20;35.87;;;;;;;4.62;87.82;101672.31;1690449;82;20206;-58
2021/10/31 00:26:02;;;;;;;51.73;34.73;;;;;;;4.61;87.95;101668.80;1711775;82;21179;-57
2021/10/31 00:28:30;;;;;;;63.33;36.07;;;;;;;4.65;87.91;101665.45;1712836;82;21111;-57
2021/10/31 00:30:56;;;;;;;79.12;36.77;;;;;;;4.65;87.90;101666.31;1698185;82;21062;-58
2021/10/31 00:33:22;;;;;;;73.17;37.93;;;;;;;4.64;88.13;101659.34;1656440;86;21029;-60
2021/10/31 00:35:48;;;;;;;53.42;33.45;;;;;;;4.61;88.16;101661.37;1651367;85;21063;-58
2021/10/31 00:38:15;;;;;;;48.68;35.38;;;;;;;4.61;87.99;101658.73;1701952;82;21134;-57
2021/10/31 00:40:43;;;;;;;49.48;33.98;;;;;;;4.63;87.70;101650.20;1685395;84;21609;-57
2021/10/31 00:43:09;;;;;;;49.80;35.00;;;;;;;4.65;87.48;101648.28;1658658;84;20998;-56
2021/10/31 00:45:35;;;;;;;;;;;;;;;4.58;87.42;101657.17;1676836;84;21070;-57
2021/10/31 00:48:01;;;;;;;55.73;34.20;;;;;;;4.53;87.81;101646.11;1676851;84;20196;-58
2021/10/31 00:50:28;;;;;;;;;;;;;;;4.42;87.95;101649.55;1677254;84;22806;-57
2021/10/31 00:52:54;;;;;;;45.77;32.00;;;;;;;4.32;88.48;101652.55;1672099;84;20138;-57
2021/10/31 00:55:21;;;;;;;48.37;34.33;;;;;;;4.21;88.77;101644.59;1670316;83;21071;-57
2021/10/31 00:57:47;;;;;;;45.98;34.60;;;;;;;4.21;88.78;101644.59;1718193;82;21105;-59
2021/10/31 01:00:14;;;;;;;56.70;39.20;;;;;;;4.19;88.72;101646.02;1716914;82;22237;-57
2021/10/31 01:02:42;;;;;;;56.53;37.47;;;;;;;4.19;88.76;101643.37;1715365;82;21018;-57
2021/10/31 01:05:10;;;;;;;;;;;;;;;4.25;88.92;101648.67;1716187;83;21109;-57
2021/10/31 01:07:59;;;;;;;52.57;36.47;;;;;;;4.27;89.12;101638.35;1714567;83;20142;-58
2021/10/31 01:10:52;;;;;;;51.33;34.07;;;;;;;4.20;89.23;101638.93;1676283;84;21066;-57
2021/10/31 01:13:47;;;;;;;53.57;36.63;;;;;;;4.13;89.24;101637.24;1680760;83;21070;-58
2021/10/31 01:16:38;;;;;;;52.90;36.57;;;;;;;4.12;88.94;101634.23;1718556;82;21018;-58
2021/10/31 01:19:16;;;;;;;50.77;33.10;;;;;;;4.17;89.08;101637.37;1701624;82;21113;-58
2021/10/31 01:22:11;;;;;;;45.45;33.23;;;;;;;4.23;89.00;101634.75;1659424;85;21003;-58
2021/10/31 01:25:01;;;;;;;48.00;35.92;;;;;;;4.22;88.68;101634.38;1668658;85;21127;-56
2021/10/31 01:28:07;;;;;;;52.63;37.77;;;;;;;4.13;88.81;101627.17;1677280;84;21037;-59
2021/10/31 01:31:10;;;;;;;53.47;37.40;;;;;;;4.02;89.22;101627.48;1672031;85;21104;-58
2021/10/31 01:34:05;;;;;;;56.30;38.63;;;;;;;4.06;89.45;101630.73;1631375;84;21053;-58
2021/10/31 01:36:55;;;;;;;49.93;36.60;;;;;;;4.14;89.19;101625.72;1668520;82;21589;-57
2021/10/31 01:39:35;;;;;;;46.73;33.70;;;;;;;4.19;89.08;101621.43;1713501;82;21161;-57
2021/10/31 01:42:20;;;;;;;47.47;33.70;;;;;;;4.25;88.95;101619.16;1689621;82;21141;-59
2021/10/31 01:45:16;;;;;;;71.90;35.23;;;;;;;4.27;88.69;101619.05;1658991;85;21562;-57
2021/10/31 01:47:59;;;;;;;51.37;36.00;;;;;;;4.16;88.25;101616.37;1710506;83;21649;-58
2021/10/31 01:50:45;;;;;;;52.63;36.80;;;;;;;4.07;88.43;101616.11;1687351;82;20968;-58
2021/10/31 01:53:35;;;;;;;44.10;34.47;;;;;;;3.80;88.48;101565.41;1670844;84;21232;-57
2021/10/31 01:56:09;;;;;;;48.07;34.73;;;;;;;4.14;88.13;101619.61;1665266;84;21124;-58
2021/10/31 01:58:41;;;;;;;43.97;33.97;;;;;;;4.16;87.96;101615.88;1682530;84;21091;-57
2021/10/31 02:01:10;;;;;;;43.60;33.07;;;;;;;4.18;87.67;101610.05;1676613;84;20967;-58
2021/10/31 02:03:39;;;;;;;47.90;33.73;;;;;;;4.18;87.40;101611.36;1673557;83;21024;-57
2021/10/31 02:06:05;;;;;;;62.03;32.50;;;;;;;4.19;87.47;101618.79;1683135;83;21019;-58
2021/10/31 02:08:35;;;;;;;57.03;34.20;;;;;;;4.14;87.41;101609.05;1610065;86;21166;-58
2021/10/31 02:11:03;;;;;;;41.43;30.90;;;;;;;4.06;87.25;101605.67;1675784;83;21613;-59
2021/10/31 02:13:31;;;;;;;37.40;30.80;;;;;;;4.03;87.14;101604.11;1681692;83;21109;-57
2021/10/31 02:15:58;;;;;;;36.53;28.87;;;;;;;4.04;86.51;101605.78;1682286;83;21061;-58
2021/10/31 02:18:27;;;;;;;38.97;31.57;;;;;;;4.01;86.29;101603.39;1658467;85;21046;-57
2021/10/31 02:20:57;;;;;;;44.90;32.17;;;;;;;4.00;86.35;101600.86;1634307;85;21015;-57
2021/10/31 02:23:24;;;;;;;45.80;31.87;;;;;;;4.01;86.59;101602.52;1686694;83;21076;-58
2021/10/31 02:25:51;;;;;;;42.73;32.27;;;;;;;3.94;86.44;101600.84;1678272;83;20974;-57
2021/10/31 02:28:17;;;;;;;37.83;30.23;;;;;;;3.87;86.46;101602.24;1683932;83;22257;-57
2021/10/31 02:30:44;;;;;;;38.28;30.50;;;;;;;3.82;86.35;101599.92;1670171;83;21111;-58
2021/10/31 02:33:10;;;;;;;41.28;30.02;;;;;;;3.88;86.25;101599.95;1681597;83;21010;-56
2021/10/31 02:35:39;;;;;;;35.73;28.00;;;;;;;3.88;85.98;101597.31;1681487;83;21011;-57
2021/10/31 02:38:05;;;;;;;36.40;29.00;;;;;;;3.87;85.79;101600.44;1681241;83;21562;-58
2021/10/31 02:40:35;;;;;;;42.05;31.73;;;;;;;3.78;85.50;101600.28;1694546;83;21558;-59
2021/10/31 02:43:04;;;;;;;46.20;33.30;;;;;;;3.61;85.79;101597.08;1699991;83;21034;-58
2021/10/31 02:45:30;;;;;;;39.33;30.53;;;;;;;3.53;86.23;101597.29;1690208;83;20986;-57
2021/10/31 02:48:05;;;;;;;43.20;32.13;;;;;;;3.30;86.37;101564.22;1674253;84;21546;-58
2021/10/31 02:50:39;;;;;;;40.47;31.17;;;;;;;3.55;86.34;101598.02;1663792;85;21029;-57
2021/10/31 02:53:35;;;;;;;37.77;29.40;;;;;;;3.56;86.12;101599.23;1669762;84;21144;-56
2021/10/31 02:56:22;;;;;;;35.27;28.93;;;;;;;3.57;85.99;101596.94;1660195;84;21114;-58
2021/10/31 02:59:01;;;;;;;39.83;30.83;;;;;;;3.55;85.91;101598.85;1637972;85;21569;-57
2021/10/31 03:01:28;;;;;;;38.13;29.03;;;;;;;3.45;86.04;101604.44;1647843;85;20980;-57
2021/10/31 03:03:56;;;;;;;37.87;28.63;;;;;;;3.37;86.05;101593.59;1648084;85;21053;-58
2021/10/31 03:06:24;;;;;;;36.60;29.63;;;;;;;3.29;85.81;101598.09;1651222;85;21137;-58
2021/10/31 03:08:51;;;;;;;40.60;31.00;;;;;;;3.27;85.76;101590.30;1664063;85;21051;-56
2021/10/31 03:11:20;;;;;;;36.67;29.53;;;;;;;3.28;85.81;101597.27;1700754;83;21147;-58
2021/10/31 03:13:47;;;;;;;41.63;31.63;;;;;;;3.31;85.92;101594.42;1717129;82;20991;-56
2021/10/31 03:16:13;;;;;;;37.25;30.77;;;;;;;3.27;85.78;101599.52;1669271;84;21059;-57
2021/10/31 03:18:41;;;;;;;40.20;32.33;;;;;;;3.22;86.05;101588.48;1718820;82;21071;-57
2021/10/31 03:21:07;;;;;;;39.83;32.10;;;;;;;3.20;86.31;101583.80;1722657;82;22203;-57
2021/10/31 03:23:33;;;;;;;35.15;30.60;;;;;;;3.23;86.32;101578.78;1719220;82;21471;-56
2021/10/31 03:25:59;;;;;;;33.67;29.48;;;;;;;3.29;85.97;101582.28;1708307;83;21084;-57
2021/10/31 03:28:26;;;;;;;40.43;30.85;;;;;;;3.33;85.78;101581.11;1713771;82;21014;-56
2021/10/31 03:30:52;;;;;;;38.90;31.40;;;;;;;3.29;85.53;101581.80;1723714;82;21633;-58
2021/10/31 03:33:17;;;;;;;41.65;31.20;;;;;;;3.19;85.51;101576.84;1670635;85;21110;-58
2021/10/31 03:35:44;;;;;;;38.33;30.55;;;;;;;3.07;85.69;101592.19;1712990;82;21073;-55
2021/10/31 03:38:10;;;;;;;43.00;33.38;;;;;;;3.01;85.94;101588.68;1726103;82;20963;-56
2021/10/31 03:40:38;;;;;;;38.97;28.57;;;;;;;3.01;86.09;101589.99;1723839;82;21061;-57
2021/10/31 03:43:04;;;;;;;;;;;;;;;3.00;86.34;101582.58;1713961;82;21099;-58
2021/10/31 03:45:31;;;;;;;37.70;29.97;;;;;;;2.99;86.42;101580.05;1691641;83;20112;-58
2021/10/31 03:47:57;;;;;;;38.53;31.95;;;;;;;2.91;86.78;101575.33;1685607;83;20983;-58
2021/10/31 03:50:23;;;;;;;44.27;33.67;;;;;;;2.80;87.31;101580.02;1691837;83;21055;-57
2021/10/31 03:52:50;;;;;;;40.25;31.23;;;;;;;2.76;87.48;101574.60;1690366;83;21653;-57
2021/10/31 03:55:19;;;;;;;37.00;29.43;;;;;;;2.81;87.23;101573.81;1646120;85;21010;-56
2021/10/31 03:57:45;;;;;;;40.27;31.10;;;;;;;2.82;87.00;101580.75;1689855;83;21521;-58
2021/10/31 04:00:14;;;;;;;39.65;32.48;;;;;;;2.84;86.95;101578.02;1691802;83;21105;-57
2021/10/31 04:02:41;;;;;;;42.53;32.97;;;;;;;2.87;86.78;101573.38;1679907;84;21319;-57
2021/10/31 04:05:09;;;;;;;;;;;;;;;2.89;86.87;101575.42;1660674;86;20987;-57
2021/10/31 04:07:36;;;;;;;42.07;32.30;;;;;;;2.91;87.09;101574.00;1685371;85;20179;-57
2021/10/31 04:10:06;;;;;;;44.20;33.90;;;;;;;2.88;87.40;101571.12;1683433;85;21030;-57
2021/10/31 04:12:35;;;;;;;42.43;33.30;;;;;;;2.93;87.12;101568.98;1689224;83;21010;-61
2021/10/31 04:15:06;;;;;;;43.70;31.77;;;;;;;3.05;86.70;101567.75;1680247;85;21114;-60
2021/10/31 04:17:33;;;;;;;41.20;32.70;;;;;;;3.06;86.26;101557.59;1688677;83;21046;-59
2021/10/31 04:20:00;;;;;;;39.10;32.40;;;;;;;3.13;85.81;101561.48;1655015;85;20986;-58
2021/10/31 04:22:29;;;;;;;;;;;;;;;3.11;85.01;101558.11;1702546;82;21061;-58
2021/10/31 04:24:56;;;;;;;44.43;35.40;;;;;;;2.97;85.07;101556.44;1674240;84;20151;-58
2021/10/31 04:27:23;;;;;;;40.25;34.55;;;;;;;2.82;85.57;101553.58;1692495;84;21054;-60
2021/10/31 04:29:49;;;;;;;43.48;34.98;;;;;;;2.84;85.86;101555.14;1662528;85;21605;-61
2021/10/31 04:32:15;;;;;;;42.80;32.78;;;;;;;2.93;85.74;101553.66;1695262;83;21002;-62
2021/10/31 04:34:42;;;;;;;45.38;34.00;;;;;;;3.01;85.59;101547.84;1699461;83;21109;-61
2021/10/31 04:37:09;;;;;;;47.13;35.17;;;;;;;3.04;85.41;101555.55;1681604;83;21088;-59
2021/10/31 04:39:34;;;;;;;39.45;33.38;;;;;;;3.05;85.41;101550.62;1695618;83;21066;-57
2021/10/31 04:42:03;;;;;;;41.30;34.05;;;;;;;3.08;85.51;101555.69;1702351;83;21006;-58
2021/10/31 04:44:30;;;;;;;46.00;35.47;;;;;;;3.06;85.38;101556.27;1693283;82;21010;-58
2021/10/31 04:47:00;;;;;;;44.30;35.37;;;;;;;3.05;85.37;101557.21;1683764;83;21085;-58
2021/10/31 04:49:27;;;;;;;40.07;33.20;;;;;;;3.04;85.26;101556.38;1693243;83;21013;-58
2021/10/31 04:51:53;;;;;;;45.37;36.77;;;;;;;3.08;85.17;101557.00;1687964;83;21028;-58
2021/10/31 04:54:21;;;;;;;38.88;32.42;;;;;;;3.14;84.88;101556.55;1689459;83;21065;-57
2021/10/31 04:56:47;;;;;;;45.17;36.00;;;;;;;3.21;84.64;101549.90;1701950;83;21080;-59
2021/10/31 04:59:14;;;;;;;38.75;31.82;;;;;;;3.22;84.47;101552.91;1687888;85;21463;-57
2021/10/31 05:01:41;;;;;;;40.03;34.17;;;;;;;3.19;84.49;101558.87;1683823;83;21510;-57
2021/10/31 05:04:07;;;;;;;41.70;33.50;;;;;;;3.10;84.24;101563.83;1671539;84;21462;-57
2021/10/31 05:08:05;;;;;;;46.10;32.87;;;;;;;3.21;84.60;101567.51;1789259;79;22275;-57
2021/10/31 05:10:32;;;;;;;43.87;33.50;;;;;;;3.20;84.07;101564.05;1768911;80;21504;-60
2021/10/31 05:12:58;;;;;;;;;;;;;;;3.24;83.98;101566.81;1721621;80;21126;-58
2021/10/31 05:15:24;;;;;;;45.47;35.07;;;;;;;3.28;83.98;101564.80;1709944;81;20188;-57
2021/10/31 05:17:50;;;;;;;50.03;35.08;;;;;;;3.25;84.31;101564.53;1717049;81;21060;-58
2021/10/31 05:20:18;;;;;;;49.95;38.33;;;;;;;3.29;84.59;101564.67;1716255;81;21060;-58
2021/10/31 05:22:44;;;;;;;45.77;35.30;;;;;;;3.42;84.78;101569.06;1715489;81;21009;-59
2021/10/31 05:25:12;;;;;;;45.20;35.85;;;;;;;3.65;84.51;101572.16;1709010;81;21099;-57
2021/10/31 05:27:40;;;;;;;41.07;31.93;;;;;;;4.07;84.22;101572.58;1694654;81;21006;-58
2021/10/31 05:30:10;;;;;;;38.63;32.97;;;;;;;4.60;83.73;101567.27;1710535;81;21013;-59
2021/10/31 05:32:39;;;;;;;42.07;33.20;;;;;;;5.22;82.01;101563.27;1692621;81;21050;-59
2021/10/31 05:35:08;;;;;;;45.90;35.60;;;;;;;5.82;80.34;101561.87;1690233;82;21036;-58
2021/10/31 05:37:42;;;;;;;43.83;36.33;;;;;;;6.36;77.97;101561.33;1684090;83;21056;-58
2021/10/31 05:40:13;;;;;;;39.77;32.20;;;;;;;6.88;75.43;101559.16;1715746;83;21541;-59
2021/10/31 05:42:41;;;;;;;42.10;33.90;;;;;;;7.35;72.58;101557.59;1681762;83;21110;-58
2021/10/31 05:45:10;;;;;;;40.83;35.50;;;;;;;7.50;70.41;101555.87;1682566;81;21073;-58
2021/10/31 05:47:39;;;;;;;40.80;32.43;;;;;;;7.32;70.17;101552.55;1691843;83;21084;-59
2021/10/31 05:50:08;;;;;;;38.90;31.17;;;;;;;7.08;69.15;101556.89;1684050;83;21091;-58
2021/10/31 05:52:37;;;;;;;40.90;33.43;;;;;;;6.79;69.25;101559.45;1699668;83;21524;-58
2021/10/31 05:55:09;;;;;;;41.23;32.67;;;;;;;6.50;70.18;101560.17;1683819;80;21517;-58
2021/10/31 05:57:35;;;;;;;40.67;33.70;;;;;;;6.23;70.89;101562.02;1681720;83;21513;-57
2021/10/31 06:00:06;;;;;;;;;;;;;;;6.01;71.53;101559.05;1684423;83;21633;-58
2021/10/31 06:02:35;;;;;;;40.67;33.30;;;;;;;5.82;72.26;101561.87;1686122;83;20473;-61
2021/10/31 06:05:03;;;;;;;;;;;;;;;5.60;73.00;101561.46;1658368;84;21062;-59
2021/10/31 06:07:30;;;;;;;44.10;32.43;;;;;;;5.51;73.24;101565.34;1650290;86;20393;-58
2021/10/31 06:09:56;;;;;;;44.40;32.17;;;;;;;5.31;73.78;101562.98;1654564;84;21091;-60
2021/10/31 06:12:23;;;;;;;45.15;33.40;;;;;;;5.15;74.60;101561.58;1678651;81;20974;-59
2021/10/31 06:14:52;;;;;;;47.73;35.37;;;;;;;5.06;75.01;101559.67;1701700;83;21034;-58
2021/10/31 06:17:18;;;;;;;42.57;36.80;;;;;;;4.94;76.02;101565.95;1709955;83;20995;-58
2021/10/31 06:19:44;;;;;;;46.80;36.90;;;;;;;4.87;76.10;101560.30;1716290;82;21048;-57
2021/10/31 06:22:11;;;;;;;50.75;36.25;;;;;;;4.71;76.80;101550.56;1711682;83;21034;-57
2021/10/31 06:24:37;;;;;;;46.90;36.15;;;;;;;4.75;77.31;101562.59;1698707;84;21032;-59
2021/10/31 06:27:04;;;;;;;45.90;36.25;;;;;;;4.80;77.63;101565.23;1696008;83;21069;-60
2021/10/31 06:29:32;;;;;;;50.87;38.50;;;;;;;4.87;77.50;101567.73;1692777;84;21061;-60
2021/10/31 06:31:58;;;;;;;47.73;38.40;;;;;;;4.92;77.38;101571.84;1693611;84;21569;-59
2021/10/31 06:34:24;;;;;;;54.35;39.48;;;;;;;4.95;77.85;101570.25;1688959;83;21490;-59
2021/10/31 06:36:50;;;;;;;56.58;42.98;;;;;;;5.03;77.82;101575.30;1684271;83;21037;-61
2021/10/31 06:39:16;;;;;;;51.35;38.73;;;;;;;5.09;77.52;101570.02;1670927;84;21073;-59
2021/10/31 06:41:42;;;;;;;55.88;40.05;;;;;;;5.20;77.31;101573.96;1683633;84;21500;-60
2021/10/31 06:44:08;;;;;;;51.15;39.25;;;;;;;5.23;77.18;101568.41;1648459;84;21020;-61
2021/10/31 06:46:35;;;;;;;48.48;37.78;;;;;;;5.32;77.45;101573.45;1677568;84;21571;-60
2021/10/31 06:49:03;;;;;;;54.47;41.13;;;;;;;5.40;77.66;101576.79;1674861;84;21177;-59
2021/10/31 06:51:30;;;;;;;58.53;41.80;;;;;;;5.49;77.31;101573.89;1680107;83;21078;-58
2021/10/31 06:53:58;;;;;;;51.97;39.43;;;;;;;5.54;76.97;101574.34;1675525;84;21065;-60
2021/10/31 06:56:28;;;;;;;55.67;40.30;;;;;;;5.61;77.11;101571.09;1672808;84;21448;-62
2021/10/31 06:58:53;;;;;;;47.13;35.83;;;;;;;5.76;76.57;101572.94;1652866;85;21553;-60
2021/10/31 07:01:20;;;;;;;52.60;38.10;;;;;;;5.85;76.36;101562.08;1664358;84;21093;-61
2021/10/31 07:03:48;;;;;;;48.27;37.20;;;;;;;5.91;76.27;101562.05;1677974;83;21029;-62
2021/10/31 07:06:16;;;;;;;53.27;41.27;;;;;;;5.92;76.53;101561.94;1692701;83;21306;-62
2021/10/31 07:08:43;;;;;;;50.27;39.53;;;;;;;5.98;76.28;101559.29;1689453;83;21016;-62
2021/10/31 07:11:11;;;;;;;52.40;39.20;;;;;;;6.02;76.34;101562.86;1694739;83;21538;-61
2021/10/31 07:13:38;;;;;;;49.57;39.20;;;;;;;6.12;76.42;101554.15;1684756;83;21094;-60
2021/10/31 07:16:04;;;;;;;48.47;38.47;;;;;;;6.30;76.23;101550.44;1681868;83;22165;-61
2021/10/31 07:18:31;;;;;;;48.05;38.88;;;;;;;6.48;75.62;101558.61;1685778;83;21547;-62
2021/10/31 07:20:57;;;;;;;47.65;36.05;;;;;;;6.58;75.69;101556.37;1680860;83;21106;-60
2021/10/31 07:23:23;;;;;;;49.63;38.53;;;;;;;6.72;75.47;101555.66;1686542;83;21018;-62
2021/10/31 07:25:50;;;;;;;45.88;33.80;;;;;;;6.83;74.93;101557.72;1704897;83;21014;-60
2021/10/31 07:28:16;;;;;;;42.37;33.40;;;;;;;6.92;74.55;101561.88;1712206;83;21069;-63
2021/10/31 07:30:43;;;;;;;38.08;30.68;;;;;;;6.98;74.02;101563.98;1704938;83;21010;-61
2021/10/31 07:33:09;;;;;;;41.95;31.68;;;;;;;7.06;73.72;101565.47;1698812;83;21026;-61
2021/10/31 07:35:37;;;;;;;42.00;32.97;;;;;;;7.15;73.51;101558.02;1697745;83;21055;-61
2021/10/31 07:38:04;;;;;;;38.50;29.75;;;;;;;7.24;73.47;101555.05;1701069;83;20998;-61
2021/10/31 07:40:34;;;;;;;38.40;29.93;;;;;;;7.37;72.82;101553.48;1696427;83;21061;-61
2021/10/31 07:43:00;;;;;;;42.60;30.97;;;;;;;7.48;72.54;101552.02;1690281;83;21080;-61
2021/10/31 07:45:26;;;;;;;;;;;;;;;7.58;72.49;101554.68;1696572;84;21662;-62
2021/10/31 07:47:54;;;;;;;29.55;25.12;;;;;;;7.67;71.38;101551.69;1701804;83;20146;-61
2021/10/31 07:50:20;;;;;;;32.05;26.12;;;;;;;7.75;71.23;101547.84;1681920;84;21109;-62
2021/10/31 07:52:46;;;;;;;34.92;26.97;;;;;;;7.89;69.99;101551.41;1687214;83;21055;-61
2021/10/31 07:55:19;;;;;;;;;;;;;;;7.98;70.16;101551.86;1697850;84;21069;-62
2021/10/31 07:57:47;;;;;;;29.33;24.57;;;;;;;8.03;68.80;101560.75;1690762;83;20200;-62
2021/10/31 08:00:14;;;;;;;32.50;26.63;;;;;;;7.99;69.09;101556.20;1695057;83;21592;-64
2021/10/31 08:02:41;;;;;;;32.43;26.43;;;;;;;8.02;68.38;101563.53;1703415;82;21010;-61
2021/10/31 08:05:08;;;;;;;29.57;25.60;;;;;;;8.07;68.92;101561.30;1702426;82;21170;-63
2021/10/31 08:07:34;;;;;;;28.87;24.13;;;;;;;8.18;68.73;101565.13;1710277;82;21089;-61
2021/10/31 08:10:00;;;;;;;30.77;25.50;;;;;;;8.33;68.28;101565.52;1708328;82;21553;-62
2021/10/31 08:12:27;;;;;;;;;;;;;;;8.44;68.17;101563.19;1666387;82;21112;-61
2021/10/31 08:14:55;;;;;;;27.17;24.07;;;;;;;8.49;67.39;101557.80;1646316;85;20479;-62
2021/10/31 08:17:21;;;;;;;;;;;;;;;8.46;67.18;101554.62;1650669;85;21498;-62
2021/10/31 08:19:47;;;;;;;24.37;21.67;;;;;;;8.50;67.47;101558.66;1650245;85;20430;-61
2021/10/31 08:22:14;;;;;;;;;;;;;;;8.53;66.81;101560.53;1654621;84;21065;-63
2021/10/31 08:24:40;;;;;;;29.10;22.20;;;;;;;8.56;66.56;101554.08;1694632;84;20115;-61
2021/10/31 08:27:08;;;;;;;27.05;23.12;;;;;;;8.54;66.85;101555.55;1687456;84;21111;-65
2021/10/31 08:29:34;;;;;;;27.70;23.47;;;;;;;8.55;66.61;101552.39;1683596;84;21782;-63
2021/10/31 08:32:02;;;;;;;25.93;21.50;;;;;;;8.60;66.93;101555.95;1695586;84;21041;-61
2021/10/31 08:34:29;;;;;;;28.97;22.93;;;;;;;8.79;66.87;101549.72;1670681;84;21039;-63
2021/10/31 08:36:56;;;;;;;27.48;24.55;;;;;;;8.96;66.35;101540.95;1653563;85;22513;-64
2021/10/31 08:39:23;;;;;;;27.63;24.40;;;;;;;9.06;65.77;101544.41;1652417;85;21052;-61
2021/10/31 08:41:49;;;;;;;27.70;23.30;;;;;;;9.07;65.76;101544.73;1645359;85;21127;-61
2021/10/31 08:44:16;;;;;;;27.30;21.47;;;;;;;9.13;65.95;101537.48;1636791;85;21095;-64
2021/10/31 08:46:43;;;;;;;30.17;23.47;;;;;;;9.24;65.84;101537.78;1630218;86;21146;-62
2021/10/31 08:49:09;;;;;;;;;;;;;;;9.37;65.49;101531.27;1632676;86;21080;-65
2021/10/31 08:51:35;;;;;;;24.87;22.03;;;;;;;9.39;64.65;101533.28;1626765;86;20245;-64
2021/10/31 08:54:02;;;;;;;26.15;22.85;;;;;;;9.36;65.08;101533.06;1639784;86;21048;-63
2021/10/31 08:56:31;;;;;;;32.33;24.70;;;;;;;9.35;65.33;101533.57;1662124;84;20971;-64
2021/10/31 08:58:57;;;;;;;;;;;;;;;9.40;65.47;101530.47;1677656;83;21559;-62
2021/10/31 09:01:23;;;;;;;28.45;20.68;;;;;;;9.47;65.52;101534.67;1682752;84;20235;-64
2021/10/31 09:03:52;;;;;;;26.00;21.73;;;;;;;9.61;65.55;101526.17;1681071;83;21018;-62
2021/10/31 09:06:26;;;;;;;26.60;20.10;;;;;;;9.80;64.81;101522.50;1690132;83;21626;-61
2021/10/31 09:08:53;;;;;;;26.60;22.70;;;;;;;9.90;64.56;101517.91;1673902;83;20998;-65
2021/10/31 09:11:19;;;;;;;26.20;23.40;;;;;;;9.99;64.22;101521.98;1739158;80;21446;-63
2021/10/31 09:13:50;;;;;;;24.67;20.72;;;;;;;10.04;64.47;101509.87;1683201;83;21016;-64
2021/10/31 09:16:17;;;;;;;25.17;21.37;;;;;;;10.14;64.19;101520.42;1673247;83;21050;-61
2021/10/31 09:18:44;;;;;;;24.27;21.70;;;;;;;10.14;63.38;101513.76;1681138;83;21078;-62
2021/10/31 09:21:11;;;;;;;23.75;20.77;;;;;;;10.10;63.58;101515.89;1680915;83;21145;-62
2021/10/31 09:23:38;;;;;;;22.77;20.07;;;;;;;10.06;63.50;101504.39;1700861;82;21028;-61
2021/10/31 09:26:05;;;;;;;25.33;20.83;;;;;;;10.05;63.83;101502.70;1708021;82;21035;-62
2021/10/31 09:28:32;;;;;;;21.77;19.13;;;;;;;10.06;63.62;101505.22;1701997;82;21537;-61
2021/10/31 09:31:00;;;;;;;24.12;17.52;;;;;;;10.08;63.55;101501.07;1697176;82;21088;-61
2021/10/31 09:33:26;;;;;;;22.80;18.77;;;;;;;10.17;62.73;101501.47;1725424;81;21482;-62
2021/10/31 09:35:57;;;;;;;24.20;18.75;;;;;;;10.25;63.02;101494.84;1700555;82;21012;-64
2021/10/31 09:38:24;;;;;;;24.57;19.03;;;;;;;10.38;62.23;101492.26;1675995;82;21531;-61
2021/10/31 09:40:49;;;;;;;29.73;20.10;;;;;;;10.48;62.17;101496.99;1700608;82;20977;-64
2021/10/31 09:43:16;;;;;;;25.85;17.85;;;;;;;10.53;62.03;101492.03;1697222;82;21035;-63
2021/10/31 09:45:44;;;;;;;25.63;18.97;;;;;;;10.60;61.52;101488.20;1692892;82;21046;-62
2021/10/31 09:48:13;;;;;;;24.23;18.80;;;;;;;10.69;61.64;101484.08;1696539;83;21027;-67
2021/10/31 09:50:43;;;;;;;29.13;18.77;;;;;;;10.80;61.43;101480.80;1680176;83;21102;-63
2021/10/31 09:53:16;;;;;;;22.13;14.43;;;;;;;10.91;60.79;101491.98;1678233;83;21050;-64
2021/10/31 09:55:43;;;;;;;17.87;12.50;;;;;;;11.03;60.00;101481.84;1686056;83;21045;-63
2021/10/31 09:58:19;;;;;;;26.47;13.60;;;;;;;11.15;59.21;101480.20;1695699;83;20987;-65
2021/10/31 10:00:48;;;;;;;26.23;12.17;;;;;;;11.23;59.26;101479.72;1687677;83;21046;-63
2021/10/31 10:06:14;;;;;;;24.23;11.75;;;;;;;11.37;57.76;101474.73;1635135;85;21576;-61
2021/10/31 10:09:07;;;;;;;19.40;10.93;;;;;;;11.44;57.60;101471.23;1648034;85;21162;-64
2021/10/31 10:11:38;;;;;;;12.43;9.20;;;;;;;11.48;57.05;101466.39;1642854;85;21584;-64
2021/10/31 10:14:30;;;;;;;20.93;10.70;;;;;;;11.48;56.62;101461.88;1657340;85;21647;-62
2021/10/31 10:17:02;;;;;;;13.17;9.63;;;;;;;11.51;56.99;101462.06;1651624;85;20998;-64
2021/10/31 10:19:47;;;;;;;18.30;10.53;;;;;;;11.50;56.86;101454.53;1659424;85;21005;-64
2021/10/31 10:22:20;;;;;;;14.87;10.80;;;;;;;11.52;56.83;101450.37;1652134;85;21145;-62
2021/10/31 10:24:58;;;;;;;12.83;9.60;;;;;;;11.59;56.47;101445.20;1658870;85;21007;-61
2021/10/31 10:27:29;;;;;;;13.70;9.65;;;;;;;11.62;56.27;101444.85;1654181;85;21052;-62
2021/10/31 10:29:58;;;;;;;14.60;8.53;;;;;;;11.65;56.09;101444.52;1658952;86;21040;-64
2021/10/31 10:32:27;;;;;;;17.73;10.07;;;;;;;11.69;55.78;101442.67;1648393;86;21347;-64
2021/10/31 10:34:57;;;;;;;13.80;10.23;;;;;;;11.69;55.88;101433.83;1675760;84;21574;-65
2021/10/31 10:37:34;;;;;;;13.27;9.13;;;;;;;11.69;55.92;101434.66;1676357;84;21447;-63
2021/10/31 10:40:09;;;;;;;16.07;9.73;;;;;;;11.71;55.93;101425.15;1645798;85;21352;-62
2021/10/31 10:42:40;;;;;;;16.37;9.78;;;;;;;11.71;55.84;101419.81;1622184;87;21034;-64
2021/10/31 10:45:15;;;;;;;13.95;9.60;;;;;;;11.77;56.12;101420.48;1620719;86;21070;-65
2021/10/31 10:47:48;;;;;;;14.33;9.03;;;;;;;11.75;55.53;101410.95;1621857;86;21121;-62
2021/10/31 10:50:28;;;;;;;17.33;9.57;;;;;;;11.67;55.65;101406.47;1622903;87;21033;-65
2021/10/31 10:52:56;;;;;;;13.78;9.00;;;;;;;11.66;55.73;101409.64;1613126;87;21469;-63
2021/10/31 10:55:29;;;;;;;11.73;9.45;;;;;;;11.66;55.95;101394.13;1623401;87;21647;-62
2021/10/31 10:58:01;;;;;;;11.40;9.73;;;;;;;11.66;55.64;101398.14;1661563;85;21145;-62
2021/10/31 11:00:37;;;;;;;11.30;9.18;;;;;;;11.63;55.79;101399.80;1658075;84;21012;-63
2021/10/31 11:03:13;;;;;;;10.40;9.15;;;;;;;11.63;55.88;101404.62;1669930;85;21123;-63
2021/10/31 11:05:49;;;;;;;;;;;;;;;11.67;55.70;101398.45;1660172;85;21128;-65
2021/10/31 11:08:19;;;;;;;10.03;9.00;;;;;;;11.67;55.65;101401.12;1670565;84;20151;-65
2021/10/31 11:10:55;;;;;;;10.10;8.50;;;;;;;11.62;55.94;101390.11;1667971;84;21024;-62
2021/10/31 11:13:23;;;;;;;10.03;8.77;;;;;;;11.64;55.39;101398.78;1667963;84;21035;-60
2021/10/31 11:15:50;;;;;;;9.53;8.50;;;;;;;11.63;55.61;101376.59;1654116;85;21052;-61
2021/10/31 11:18:17;;;;;;;11.33;8.53;;;;;;;11.68;55.34;101371.58;1644852;85;21098;-62
2021/10/31 11:20:46;;;;;;;10.23;8.60;;;;;;;11.72;55.48;101386.77;1663875;85;21110;-62
2021/10/31 11:23:17;;;;;;;14.37;8.23;;;;;;;11.80;55.50;101384.58;1682608;83;21137;-62
2021/10/31 11:25:47;;;;;;;9.43;8.38;;;;;;;11.85;54.86;101381.73;1693717;83;21028;-62
2021/10/31 11:28:17;;;;;;;8.75;7.87;;;;;;;11.87;54.55;101389.06;1633179;86;21063;-61
2021/10/31 11:30:48;;;;;;;14.93;8.53;;;;;;;11.87;54.63;101387.73;1698369;83;21634;-62
2021/10/31 11:33:16;;;;;;;11.38;8.60;;;;;;;11.90;54.75;101380.41;1695944;83;21553;-63
2021/10/31 11:35:43;;;;;;;14.65;8.20;;;;;;;11.94;54.61;101369.70;1679571;84;21031;-63
2021/10/31 11:38:17;;;;;;;9.65;6.83;;;;;;;11.92;54.37;101364.52;1687263;83;21486;-66